Cape Lisburne LRRS Airport Cape Lisburne US
ICAO: PALU
IATA:
Category: Medium
Scheduled Services:

Elevation: 16 ft
TransAlt. 18000 ft.

Airport Communications:
ANCHORAGE CNTR:119.65
KOTZEBUE RDO:122.3
CTAF/UNICOM:126.2

PALU Zoom In..

Runways:

(A) RW 08 length 4805 ft width 135 ft
---- / hdg 84

(B) RW 26 length 4805 ft width 135 ft
---- / hdg 264

Location; PALU
Day. 20 / Time. 19.55 Zulu
* Altimeter: 30.12
* Temperature: 09° c. 48.2°f.
* Wind from: 220° Speed 21 kn with Gusts up to 27 kn.
Dewpoint: 08° c.
Visibility: 2 m.
Clouds: Broken 500 ft.
Conditions: Light Rain.Conditions: Mist.

PALU 201955Z AUTO 22021G27KT 2 1/2SM -RA BR BKN005 09/08 A3012 RMK AO2 RAB1951 SLP198 P0000 T00890078 $


Wind From 220°
Speed 21 kn.

 
 
jpsmedia.com for Web Design worldairports.se 2018   terms of use